sensor_id;sensor_type;location;lat;lon;timestamp;P1;durP1;ratioP1;P2;durP2;ratioP2
33266;SDS011;19638;49.080;11.896;2022-07-05T00:00:29;2.80;;;2.60;;
33266;SDS011;19638;49.080;11.896;2022-07-05T00:04:32;4.22;;;2.58;;
33266;SDS011;19638;49.080;11.896;2022-07-05T00:08:35;3.53;;;2.58;;
33266;SDS011;19638;49.080;11.896;2022-07-05T00:12:38;6.63;;;2.60;;
33266;SDS011;19638;49.080;11.896;2022-07-05T00:16:43;2.67;;;2.47;;
33266;SDS011;19638;49.080;11.896;2022-07-05T00:20:46;2.72;;;2.53;;
33266;SDS011;19638;49.080;11.896;2022-07-05T00:24:49;2.45;;;2.20;;
33266;SDS011;19638;49.080;11.896;2022-07-05T00:28:52;2.38;;;2.25;;
33266;SDS011;19638;49.080;11.896;2022-07-05T00:32:57;2.40;;;2.20;;
33266;SDS011;19638;49.080;11.896;2022-07-05T00:37:00;4.03;;;2.22;;
33266;SDS011;19638;49.080;11.896;2022-07-05T00:41:03;3.17;;;2.40;;
33266;SDS011;19638;49.080;11.896;2022-07-05T00:45:07;2.65;;;2.45;;
33266;SDS011;19638;49.080;11.896;2022-07-05T00:49:13;2.08;;;1.98;;
33266;SDS011;19638;49.080;11.896;2022-07-05T00:53:16;2.88;;;2.17;;
33266;SDS011;19638;49.080;11.896;2022-07-05T00:57:20;2.25;;;2.10;;
33266;SDS011;19638;49.080;11.896;2022-07-05T01:01:24;2.17;;;2.05;;
33266;SDS011;19638;49.080;11.896;2022-07-05T01:05:30;3.63;;;1.95;;
33266;SDS011;19638;49.080;11.896;2022-07-05T01:09:35;2.75;;;2.10;;
33266;SDS011;19638;49.080;11.896;2022-07-05T01:13:38;3.72;;;2.03;;
33266;SDS011;19638;49.080;11.896;2022-07-05T01:17:42;2.85;;;2.00;;
33266;SDS011;19638;49.080;11.896;2022-07-05T01:21:47;1.75;;;1.63;;
33266;SDS011;19638;49.080;11.896;2022-07-05T01:25:52;2.28;;;1.85;;
33266;SDS011;19638;49.080;11.896;2022-07-05T01:29:56;2.05;;;1.95;;
33266;SDS011;19638;49.080;11.896;2022-07-05T01:34:00;2.05;;;1.85;;
33266;SDS011;19638;49.080;11.896;2022-07-05T01:38:03;2.80;;;1.67;;
33266;SDS011;19638;49.080;11.896;2022-07-05T01:42:08;2.85;;;1.80;;
33266;SDS011;19638;49.080;11.896;2022-07-05T01:46:11;4.28;;;2.03;;
33266;SDS011;19638;49.080;11.896;2022-07-05T01:50:17;2.17;;;1.95;;
33266;SDS011;19638;49.080;11.896;2022-07-05T01:54:23;1.95;;;1.85;;
33266;SDS011;19638;49.080;11.896;2022-07-05T01:58:29;2.33;;;1.90;;
33266;SDS011;19638;49.080;11.896;2022-07-05T02:02:33;2.15;;;1.90;;
33266;SDS011;19638;49.080;11.896;2022-07-05T02:06:37;3.25;;;2.25;;
33266;SDS011;19638;49.080;11.896;2022-07-05T02:10:41;2.63;;;2.10;;
33266;SDS011;19638;49.080;11.896;2022-07-05T02:14:46;6.70;;;2.17;;
33266;SDS011;19638;49.080;11.896;2022-07-05T02:18:49;1.83;;;1.75;;
33266;SDS011;19638;49.080;11.896;2022-07-05T02:22:52;13.07;;;2.55;;
33266;SDS011;19638;49.080;11.896;2022-07-05T02:26:55;13.68;;;2.53;;
33266;SDS011;19638;49.080;11.896;2022-07-05T02:31:00;2.00;;;1.90;;
33266;SDS011;19638;49.080;11.896;2022-07-05T02:35:03;3.38;;;2.22;;
33266;SDS011;19638;49.080;11.896;2022-07-05T02:39:08;2.88;;;2.13;;
33266;SDS011;19638;49.080;11.896;2022-07-05T02:43:11;2.72;;;2.28;;
33266;SDS011;19638;49.080;11.896;2022-07-05T02:47:15;4.10;;;2.30;;
33266;SDS011;19638;49.080;11.896;2022-07-05T02:51:19;2.45;;;2.25;;
33266;SDS011;19638;49.080;11.896;2022-07-05T02:55:22;2.53;;;2.13;;
33266;SDS011;19638;49.080;11.896;2022-07-05T02:59:25;4.53;;;2.13;;
33266;SDS011;19638;49.080;11.896;2022-07-05T03:03:30;1.98;;;1.92;;
33266;SDS011;19638;49.080;11.896;2022-07-05T03:07:33;5.78;;;2.72;;
33266;SDS011;19638;49.080;11.896;2022-07-05T03:11:37;4.15;;;2.30;;
33266;SDS011;19638;49.080;11.896;2022-07-05T03:15:40;4.25;;;2.47;;
33266;SDS011;19638;49.080;11.896;2022-07-05T03:19:45;3.08;;;2.60;;
33266;SDS011;19638;49.080;11.896;2022-07-05T03:23:48;3.58;;;2.80;;
33266;SDS011;19638;49.080;11.896;2022-07-05T03:27:51;2.70;;;2.40;;
33266;SDS011;19638;49.080;11.896;2022-07-05T03:31:55;3.75;;;2.45;;
33266;SDS011;19638;49.080;11.896;2022-07-05T03:35:59;5.28;;;2.70;;
33266;SDS011;19638;49.080;11.896;2022-07-05T03:40:03;4.40;;;2.50;;
33266;SDS011;19638;49.080;11.896;2022-07-05T03:44:07;4.20;;;2.85;;
33266;SDS011;19638;49.080;11.896;2022-07-05T03:48:10;2.88;;;2.35;;
33266;SDS011;19638;49.080;11.896;2022-07-05T03:52:35;2.88;;;2.67;;
33266;SDS011;19638;49.080;11.896;2022-07-05T03:56:38;4.15;;;2.60;;
33266;SDS011;19638;49.080;11.896;2022-07-05T04:00:41;3.00;;;2.80;;
33266;SDS011;19638;49.080;11.896;2022-07-05T04:04:44;5.93;;;2.75;;
33266;SDS011;19638;49.080;11.896;2022-07-05T04:08:49;3.10;;;2.90;;
33266;SDS011;19638;49.080;11.896;2022-07-05T04:12:52;4.38;;;2.58;;
33266;SDS011;19638;49.080;11.896;2022-07-05T04:16:56;3.08;;;2.67;;
33266;SDS011;19638;49.080;11.896;2022-07-05T04:20:59;2.75;;;2.55;;
33266;SDS011;19638;49.080;11.896;2022-07-05T04:25:04;2.75;;;2.55;;
33266;SDS011;19638;49.080;11.896;2022-07-05T04:29:20;3.85;;;2.42;;
33266;SDS011;19638;49.080;11.896;2022-07-05T04:33:23;2.60;;;2.40;;
33266;SDS011;19638;49.080;11.896;2022-07-05T04:37:27;3.42;;;2.50;;
33266;SDS011;19638;49.080;11.896;2022-07-05T04:41:31;3.58;;;2.10;;
33266;SDS011;19638;49.080;11.896;2022-07-05T04:45:35;6.68;;;2.60;;
33266;SDS011;19638;49.080;11.896;2022-07-05T04:49:38;3.63;;;2.53;;
33266;SDS011;19638;49.080;11.896;2022-07-05T04:53:42;2.95;;;2.42;;
33266;SDS011;19638;49.080;11.896;2022-07-05T04:57:47;3.50;;;2.20;;
33266;SDS011;19638;49.080;11.896;2022-07-05T05:01:50;2.33;;;2.22;;
33266;SDS011;19638;49.080;11.896;2022-07-05T05:05:54;4.45;;;2.58;;
33266;SDS011;19638;49.080;11.896;2022-07-05T05:09:57;4.13;;;2.50;;
33266;SDS011;19638;49.080;11.896;2022-07-05T05:14:02;7.43;;;2.58;;
33266;SDS011;19638;49.080;11.896;2022-07-05T05:18:05;4.63;;;2.30;;
33266;SDS011;19638;49.080;11.896;2022-07-05T05:22:09;4.93;;;2.17;;
33266;SDS011;19638;49.080;11.896;2022-07-05T05:26:12;2.55;;;2.13;;
33266;SDS011;19638;49.080;11.896;2022-07-05T05:30:17;4.45;;;2.17;;
33266;SDS011;19638;49.080;11.896;2022-07-05T05:34:21;3.03;;;2.05;;
33266;SDS011;19638;49.080;11.896;2022-07-05T05:38:25;3.33;;;2.03;;
33266;SDS011;19638;49.080;11.896;2022-07-05T05:42:28;6.90;;;2.75;;
33266;SDS011;19638;49.080;11.896;2022-07-05T05:46:33;5.00;;;2.30;;
33266;SDS011;19638;49.080;11.896;2022-07-05T05:50:37;3.92;;;2.22;;
33266;SDS011;19638;49.080;11.896;2022-07-05T05:54:41;2.70;;;2.17;;
33266;SDS011;19638;49.080;11.896;2022-07-05T06:09:00;2.17;;;2.00;;
33266;SDS011;19638;49.080;11.896;2022-07-05T06:13:05;6.50;;;2.55;;
33266;SDS011;19638;49.080;11.896;2022-07-05T06:21:42;3.08;;;2.10;;
33266;SDS011;19638;49.080;11.896;2022-07-05T06:30:21;2.55;;;2.03;;
33266;SDS011;19638;49.080;11.896;2022-07-05T06:48:35;2.53;;;2.20;;
33266;SDS011;19638;49.080;11.896;2022-07-05T07:24:57;6.32;;;2.65;;
33266;SDS011;19638;49.080;11.896;2022-07-05T07:33:38;2.67;;;2.40;;
33266;SDS011;19638;49.080;11.896;2022-07-05T07:37:47;5.80;;;2.50;;
33266;SDS011;19638;49.080;11.896;2022-07-05T07:41:51;3.10;;;2.58;;
33266;SDS011;19638;49.080;11.896;2022-07-05T07:45:54;2.92;;;2.72;;
33266;SDS011;19638;49.080;11.896;2022-07-05T08:03:44;10.80;;;2.70;;
33266;SDS011;19638;49.080;11.896;2022-07-05T08:07:48;6.07;;;2.70;;
33266;SDS011;19638;49.080;11.896;2022-07-05T08:57:54;3.30;;;2.38;;
33266;SDS011;19638;49.080;11.896;2022-07-05T09:06:35;6.40;;;2.40;;
33266;SDS011;19638;49.080;11.896;2022-07-05T09:15:16;2.80;;;2.58;;
33266;SDS011;19638;49.080;11.896;2022-07-05T09:19:20;4.07;;;2.35;;
33266;SDS011;19638;49.080;11.896;2022-07-05T09:27:59;1.98;;;1.88;;
33266;SDS011;19638;49.080;11.896;2022-07-05T09:45:51;8.73;;;2.10;;
33266;SDS011;19638;49.080;11.896;2022-07-05T09:55:02;1.83;;;1.70;;
33266;SDS011;19638;49.080;11.896;2022-07-05T09:59:14;4.15;;;1.90;;
33266;SDS011;19638;49.080;11.896;2022-07-05T11:13:36;3.83;;;1.20;;
33266;SDS011;19638;49.080;11.896;2022-07-05T11:41:29;1.38;;;1.17;;
33266;SDS011;19638;49.080;11.896;2022-07-05T12:08:35;3.97;;;1.40;;
33266;SDS011;19638;49.080;11.896;2022-07-05T12:17:13;1.40;;;1.20;;
33266;SDS011;19638;49.080;11.896;2022-07-05T12:21:25;1.48;;;1.40;;
33266;SDS011;19638;49.080;11.896;2022-07-05T12:25:30;5.03;;;1.23;;
33266;SDS011;19638;49.080;11.896;2022-07-05T12:52:53;1.35;;;1.25;;
33266;SDS011;19638;49.080;11.896;2022-07-05T12:56:59;1.30;;;1.10;;
33266;SDS011;19638;49.080;11.896;2022-07-05T13:01:26;1.20;;;1.10;;
33266;SDS011;19638;49.080;11.896;2022-07-05T13:10:13;2.05;;;1.35;;
33266;SDS011;19638;49.080;11.896;2022-07-05T13:18:53;1.17;;;1.17;;
33266;SDS011;19638;49.080;11.896;2022-07-05T13:27:31;2.75;;;1.20;;
33266;SDS011;19638;49.080;11.896;2022-07-05T13:31:35;1.38;;;1.20;;
33266;SDS011;19638;49.080;11.896;2022-07-05T13:40:17;2.88;;;1.50;;
33266;SDS011;19638;49.080;11.896;2022-07-05T13:44:21;2.92;;;1.55;;
33266;SDS011;19638;49.080;11.896;2022-07-05T13:48:24;2.67;;;1.13;;
33266;SDS011;19638;49.080;11.896;2022-07-05T13:57:05;2.47;;;1.35;;
33266;SDS011;19638;49.080;11.896;2022-07-05T14:01:08;2.78;;;1.10;;
33266;SDS011;19638;49.080;11.896;2022-07-05T14:55:51;3.20;;;1.30;;
33266;SDS011;19638;49.080;11.896;2022-07-05T14:59:56;1.80;;;1.63;;
33266;SDS011;19638;49.080;11.896;2022-07-05T15:03:59;1.60;;;1.30;;
33266;SDS011;19638;49.080;11.896;2022-07-05T15:08:04;3.13;;;1.60;;
33266;SDS011;19638;49.080;11.896;2022-07-05T15:21:18;1.65;;;1.40;;
33266;SDS011;19638;49.080;11.896;2022-07-05T15:25:23;2.85;;;1.40;;
33266;SDS011;19638;49.080;11.896;2022-07-05T15:34:00;5.00;;;1.40;;
33266;SDS011;19638;49.080;11.896;2022-07-05T15:38:04;1.95;;;1.50;;
33266;SDS011;19638;49.080;11.896;2022-07-05T15:42:08;2.55;;;1.30;;
33266;SDS011;19638;49.080;11.896;2022-07-05T15:46:12;1.27;;;1.23;;
33266;SDS011;19638;49.080;11.896;2022-07-05T15:50:16;1.67;;;1.55;;
33266;SDS011;19638;49.080;11.896;2022-07-05T15:58:57;4.85;;;1.50;;
33266;SDS011;19638;49.080;11.896;2022-07-05T16:03:00;4.85;;;1.75;;
33266;SDS011;19638;49.080;11.896;2022-07-05T16:07:04;1.70;;;1.30;;
33266;SDS011;19638;49.080;11.896;2022-07-05T16:11:07;1.42;;;1.20;;
33266;SDS011;19638;49.080;11.896;2022-07-05T16:15:12;3.42;;;1.38;;
33266;SDS011;19638;49.080;11.896;2022-07-05T16:19:35;1.63;;;1.52;;
33266;SDS011;19638;49.080;11.896;2022-07-05T16:23:38;2.90;;;1.35;;
33266;SDS011;19638;49.080;11.896;2022-07-05T16:27:42;2.60;;;1.20;;
33266;SDS011;19638;49.080;11.896;2022-07-05T16:31:46;4.00;;;1.48;;
33266;SDS011;19638;49.080;11.896;2022-07-05T16:35:53;2.75;;;1.20;;
33266;SDS011;19638;49.080;11.896;2022-07-05T16:44:33;1.58;;;1.30;;
33266;SDS011;19638;49.080;11.896;2022-07-05T16:48:38;4.70;;;1.50;;
33266;SDS011;19638;49.080;11.896;2022-07-05T16:57:16;2.83;;;1.35;;
33266;SDS011;19638;49.080;11.896;2022-07-05T17:01:20;1.13;;;1.13;;
33266;SDS011;19638;49.080;11.896;2022-07-05T17:10:00;2.83;;;1.35;;
33266;SDS011;19638;49.080;11.896;2022-07-05T17:14:03;1.20;;;1.20;;
33266;SDS011;19638;49.080;11.896;2022-07-05T17:18:06;5.28;;;1.40;;
33266;SDS011;19638;49.080;11.896;2022-07-05T17:26:45;1.50;;;1.40;;
33266;SDS011;19638;49.080;11.896;2022-07-05T17:30:49;1.60;;;1.50;;
33266;SDS011;19638;49.080;11.896;2022-07-05T17:39:27;1.73;;;1.40;;
33266;SDS011;19638;49.080;11.896;2022-07-05T17:48:06;2.00;;;1.23;;
33266;SDS011;19638;49.080;11.896;2022-07-05T18:10:37;1.75;;;1.48;;
33266;SDS011;19638;49.080;11.896;2022-07-05T18:14:42;3.67;;;1.30;;
33266;SDS011;19638;49.080;11.896;2022-07-05T18:27:55;2.05;;;1.40;;
33266;SDS011;19638;49.080;11.896;2022-07-05T18:50:26;2.67;;;1.40;;
33266;SDS011;19638;49.080;11.896;2022-07-05T18:54:29;3.15;;;1.42;;
33266;SDS011;19638;49.080;11.896;2022-07-05T18:58:32;2.83;;;1.55;;
33266;SDS011;19638;49.080;11.896;2022-07-05T19:02:35;5.25;;;2.03;;
33266;SDS011;19638;49.080;11.896;2022-07-05T19:11:47;1.60;;;1.50;;
33266;SDS011;19638;49.080;11.896;2022-07-05T19:16:08;1.63;;;1.60;;
33266;SDS011;19638;49.080;11.896;2022-07-05T19:25:21;3.53;;;1.67;;
33266;SDS011;19638;49.080;11.896;2022-07-05T19:29:25;1.55;;;1.55;;
33266;SDS011;19638;49.080;11.896;2022-07-05T19:51:54;2.85;;;1.50;;
33266;SDS011;19638;49.080;11.896;2022-07-05T20:15:02;1.98;;;1.70;;
33266;SDS011;19638;49.080;11.896;2022-07-05T20:46:43;3.50;;;1.98;;
33266;SDS011;19638;49.080;11.896;2022-07-05T20:55:25;1.85;;;1.75;;
33266;SDS011;19638;49.080;11.896;2022-07-05T21:04:02;2.90;;;1.67;;
33266;SDS011;19638;49.080;11.896;2022-07-05T21:08:06;2.78;;;1.88;;
33266;SDS011;19638;49.080;11.896;2022-07-05T21:12:11;2.97;;;2.00;;
33266;SDS011;19638;49.080;11.896;2022-07-05T21:16:15;2.42;;;1.88;;
33266;SDS011;19638;49.080;11.896;2022-07-05T21:20:18;3.75;;;2.10;;
33266;SDS011;19638;49.080;11.896;2022-07-05T21:24:21;2.40;;;2.20;;
33266;SDS011;19638;49.080;11.896;2022-07-05T21:28:26;6.03;;;1.90;;
33266;SDS011;19638;49.080;11.896;2022-07-05T21:32:30;2.80;;;1.80;;
33266;SDS011;19638;49.080;11.896;2022-07-05T21:41:10;2.47;;;1.90;;
33266;SDS011;19638;49.080;11.896;2022-07-05T21:45:15;5.78;;;2.20;;
33266;SDS011;19638;49.080;11.896;2022-07-05T21:49:18;3.28;;;1.98;;
33266;SDS011;19638;49.080;11.896;2022-07-05T21:57:59;2.20;;;1.98;;
33266;SDS011;19638;49.080;11.896;2022-07-05T22:02:03;4.03;;;2.00;;
33266;SDS011;19638;49.080;11.896;2022-07-05T22:11:02;2.13;;;2.00;;
33266;SDS011;19638;49.080;11.896;2022-07-05T22:15:23;3.10;;;2.20;;
33266;SDS011;19638;49.080;11.896;2022-07-05T22:19:28;2.75;;;2.00;;
33266;SDS011;19638;49.080;11.896;2022-07-05T22:23:31;3.95;;;2.20;;
33266;SDS011;19638;49.080;11.896;2022-07-05T22:27:34;2.35;;;2.20;;
33266;SDS011;19638;49.080;11.896;2022-07-05T22:31:37;2.75;;;2.38;;
33266;SDS011;19638;49.080;11.896;2022-07-05T22:35:42;8.98;;;2.70;;
33266;SDS011;19638;49.080;11.896;2022-07-05T22:39:45;2.17;;;1.98;;
33266;SDS011;19638;49.080;11.896;2022-07-05T22:43:48;3.72;;;2.38;;
33266;SDS011;19638;49.080;11.896;2022-07-05T22:47:52;2.53;;;2.15;;
33266;SDS011;19638;49.080;11.896;2022-07-05T22:51:56;3.38;;;2.55;;
33266;SDS011;19638;49.080;11.896;2022-07-05T22:56:00;2.53;;;2.33;;
33266;SDS011;19638;49.080;11.896;2022-07-05T23:00:03;2.42;;;2.22;;
33266;SDS011;19638;49.080;11.896;2022-07-05T23:08:46;2.50;;;2.30;;
33266;SDS011;19638;49.080;11.896;2022-07-05T23:12:49;4.72;;;2.40;;
33266;SDS011;19638;49.080;11.896;2022-07-05T23:21:30;2.65;;;2.45;;
33266;SDS011;19638;49.080;11.896;2022-07-05T23:25:34;2.90;;;2.38;;
33266;SDS011;19638;49.080;11.896;2022-07-05T23:29:37;4.03;;;2.20;;
33266;SDS011;19638;49.080;11.896;2022-07-05T23:38:17;2.88;;;2.67;;
33266;SDS011;19638;49.080;11.896;2022-07-05T23:42:23;3.15;;;2.35;;
33266;SDS011;19638;49.080;11.896;2022-07-05T23:46:26;3.80;;;2.42;;
33266;SDS011;19638;49.080;11.896;2022-07-05T23:50:29;3.17;;;2.38;;
33266;SDS011;19638;49.080;11.896;2022-07-05T23:59:11;6.20;;;2.33;;
